Time;durP1;ratioP1;P1;durP2;ratioP2;P2;SDS_P1;SDS_P2;PMS_P1;PMS_P2;Temp;Humidity;BMP_temperature;BMP_pressure;BME280_temperature;BME280_humidity;BME280_pressure;Samples;Min_cycle;Max_cycle;Signal;HPM_P1;HPM_P2
2024/04/01 00:02:07;;;;;;;;;;;;;;;;;;5012754;28;19948;-65
2024/04/01 00:04:33;;;;;;;;;;;;;;;;;;5013051;28;20004;-65
2024/04/01 00:06:59;;;;;;;;;;;;;;;;;;5013194;28;19909;-65
2024/04/01 00:09:25;;;;;;;;;;;;;;;;;;5012485;28;19917;-65
2024/04/01 00:11:51;;;;;;;;;;;;;;;;;;5012826;28;20383;-65
2024/04/01 00:14:17;;;;;;;;;;;;;;;;;;5013039;28;19932;-64
2024/04/01 00:16:43;;;;;;;;;;;;;;;;;;5012713;28;19951;-65
2024/04/01 00:19:09;;;;;;;;;;;;;;;;;;5012601;28;20391;-65
2024/04/01 00:21:34;;;;;;;;;;;;;;;;;;5012599;28;19932;-64
2024/04/01 00:24:00;;;;;;;;;;;;;;;;;;5012784;28;20290;-64
2024/04/01 00:26:26;;;;;;;;;;;;;;;;;;5012848;28;19913;-64
2024/04/01 00:28:52;;;;;;;;;;;;;;;;;;5012611;28;19909;-64
2024/04/01 00:31:18;;;;;;;;;;;;;;;;;;5012075;28;19917;-65
2024/04/01 00:33:44;;;;;;;;;;;;;;;;;;5012331;28;19921;-65
2024/04/01 00:36:10;;;;;;;;;;;;;;;;;;5012406;28;20463;-65
2024/04/01 00:38:35;;;;;;;;;;;;;;;;;;5012307;28;19924;-65
2024/04/01 00:41:01;;;;;;;;;;;;;;;;;;5012614;28;19913;-65
2024/04/01 00:43:27;;;;;;;;;;;;;;;;;;5012337;28;20269;-64
2024/04/01 00:45:53;;;;;;;;;;;;;;;;;;5012431;28;19914;-65
2024/04/01 00:48:19;;;;;;;;;;;;;;;;;;5011739;28;20014;-64
2024/04/01 00:50:45;;;;;;;;;;;;;;;;;;5011791;28;20283;-64
2024/04/01 00:53:11;;;;;;;;;;;;;;;;;;5012159;28;19917;-63
2024/04/01 00:55:36;;;;;;;;;;;;;;;;;;5012033;28;20399;-64
2024/04/01 00:58:02;;;;;;;;;;;;;;;;;;5012105;28;19936;-65
2024/04/01 01:00:28;;;;;;;;;;;;;;;;;;5011886;28;19916;-64
2024/04/01 01:02:54;;;;;;;;;;;;;;;;;;5011903;28;19921;-65
2024/04/01 01:05:20;;;;;;;;;;;;;;;;;;5011414;28;19909;-64
2024/04/01 01:07:46;;;;;;;;;;;;;;;;;;5011754;28;19913;-65
2024/04/01 01:10:12;;;;;;;;;;;;;;;;;;5012021;28;19914;-65
2024/04/01 01:12:37;;;;;;;;;;;;;;;;;;5011476;28;19917;-65
2024/04/01 01:15:04;;;;;;;;;;;;;;;;;;5011930;28;19936;-65
2024/04/01 01:17:30;;;;;;;;;;;;;;;;;;5011591;28;20387;-64
2024/04/01 01:19:56;;;;;;;;;;;;;;;;;;5011279;28;19928;-64
2024/04/01 01:22:21;;;;;;;;;;;;;;;;;;5011406;28;19913;-64
2024/04/01 01:24:47;;;;;;;;;;;;;;;;;;5011672;28;19971;-65
2024/04/01 01:27:13;;;;;;;;;;;;;;;;;;5011697;28;19920;-65
2024/04/01 01:29:39;;;;;;;;;;;;;;;;;;5011524;28;20287;-64
2024/04/01 01:32:05;;;;;;;;;;;;;;;;;;5011409;28;19910;-64
2024/04/01 01:34:33;;;;;;;;;;;;;;;;;;5008456;28;19910;-64
2024/04/01 01:36:58;;;;;;;;;;;;;;;;;;5011657;28;19914;-64
2024/04/01 01:39:24;;;;;;;;;;;;;;;;;;5011632;28;19913;-64
2024/04/01 01:41:50;;;;;;;;;;;;;;;;;;5011351;28;19917;-65
2024/04/01 01:44:16;;;;;;;;;;;;;;;;;;5011604;28;19910;-64
2024/04/01 01:46:42;;;;;;;;;;;;;;;;;;5011102;28;19914;-65
2024/04/01 01:49:08;;;;;;;;;;;;;;;;;;5011713;28;20503;-65
2024/04/01 01:51:34;;;;;;;;;;;;;;;;;;5010996;28;19913;-65
2024/04/01 01:54:00;;;;;;;;;;;;;;;;;;5012972;28;20207;-64
2024/04/01 01:56:25;;;;;;;;;;;;;;;;;;5006017;28;20076;-63
2024/04/01 01:58:51;;;;;;;;;;;;;;;;;;5021455;28;19959;-65
2024/04/01 02:01:17;;;;;;;;;;;;;;;;;;5015644;28;19909;-65
2024/04/01 02:03:44;;;;;;;;;;;;;;;;;;5012763;28;20004;-64
2024/04/01 02:06:10;;;;;;;;;;;;;;;;;;5018645;28;19996;-64
2024/04/01 02:08:36;;;;;;;;;;;;;;;;;;5020129;28;19995;-65
2024/04/01 02:11:02;;;;;;;;;;;;;;;;;;5012326;28;19972;-64
2024/04/01 02:13:28;;;;;;;;;;;;;;;;;;5015661;28;19909;-64
2024/04/01 02:15:54;;;;;;;;;;;;;;;;;;5011089;28;19916;-65
2024/04/01 02:18:21;;;;;;;;;;;;;;;;;;5010786;28;20301;-64
2024/04/01 02:20:51;;;;;;;;;;;;;;;;;;5010383;28;19925;-64
2024/04/01 02:23:17;;;;;;;;;;;;;;;;;;5010836;28;19952;-65
2024/04/01 02:25:42;;;;;;;;;;;;;;;;;;5010763;28;19914;-63
2024/04/01 02:28:09;;;;;;;;;;;;;;;;;;5011055;28;19909;-64
2024/04/01 02:30:35;;;;;;;;;;;;;;;;;;5019179;28;19909;-65
2024/04/01 02:33:01;;;;;;;;;;;;;;;;;;5020551;28;20446;-65
2024/04/01 02:35:27;;;;;;;;;;;;;;;;;;5018137;28;19918;-65
2024/04/01 02:37:53;;;;;;;;;;;;;;;;;;5011217;28;20019;-65
2024/04/01 02:40:18;;;;;;;;;;;;;;;;;;5010553;28;19918;-64
2024/04/01 02:42:44;;;;;;;;;;;;;;;;;;5010707;28;20060;-65
2024/04/01 02:45:10;;;;;;;;;;;;;;;;;;5010852;28;19909;-64
2024/04/01 02:47:36;;;;;;;;;;;;;;;;;;5010792;28;19909;-64
2024/04/01 02:50:02;;;;;;;;;;;;;;;;;;5010714;28;20000;-64
2024/04/01 02:52:28;;;;;;;;;;;;;;;;;;5010660;28;20367;-64
2024/04/01 02:54:54;;;;;;;;;;;;;;;;;;5010655;28;19910;-64
2024/04/01 02:57:20;;;;;;;;;;;;;;;;;;5012250;28;19918;-65
2024/04/01 02:59:46;;;;;;;;;;;;;;;;;;5014113;28;19913;-64
2024/04/01 03:02:12;;;;;;;;;;;;;;;;;;5013989;28;20419;-65
2024/04/01 03:04:38;;;;;;;;;;;;;;;;;;5014051;28;19956;-65
2024/04/01 03:07:04;;;;;;;;;;;;;;;;;;5014283;28;20434;-64
2024/04/01 03:09:30;;;;;;;;;;;;;;;;;;5014174;28;19965;-65
2024/04/01 03:11:56;;;;;;;;;;;;;;;;;;5014238;28;19917;-65
2024/04/01 03:14:22;;;;;;;;;;;;;;;;;;5012456;28;19964;-64
2024/04/01 03:16:51;;;;;;;;;;;;;;;;;;5013811;28;19909;-64
2024/04/01 03:19:16;;;;;;;;;;;;;;;;;;5013747;28;19989;-64
2024/04/01 03:21:42;;;;;;;;;;;;;;;;;;5013671;28;20434;-63
2024/04/01 03:24:08;;;;;;;;;;;;;;;;;;5013912;28;19909;-64
2024/04/01 03:26:34;;;;;;;;;;;;;;;;;;5014037;28;19932;-64
2024/04/01 03:29:00;;;;;;;;;;;;;;;;;;5013740;28;20364;-64
2024/04/01 03:31:26;;;;;;;;;;;;;;;;;;5013200;28;19976;-64
2024/04/01 03:33:52;;;;;;;;;;;;;;;;;;5013607;28;19914;-65
2024/04/01 03:36:18;;;;;;;;;;;;;;;;;;5013608;28;20384;-64
2024/04/01 03:38:44;;;;;;;;;;;;;;;;;;5013539;28;19923;-65
2024/04/01 03:41:09;;;;;;;;;;;;;;;;;;5013316;28;19909;-65
2024/04/01 03:43:35;;;;;;;;;;;;;;;;;;5013463;28;19916;-65
2024/04/01 03:46:01;;;;;;;;;;;;;;;;;;5013216;28;19921;-64
2024/04/01 03:48:28;;;;;;;;;;;;;;;;;;5013210;28;19914;-64
2024/04/01 03:50:54;;;;;;;;;;;;;;;;;;5013363;28;19936;-65
2024/04/01 03:53:20;;;;;;;;;;;;;;;;;;5013358;28;20376;-65
2024/04/01 03:55:46;;;;;;;;;;;;;;;;;;5032049;28;19909;-65
2024/04/01 03:58:12;;;;;;;;;;;;;;;;;;5019353;28;19920;-64
2024/04/01 04:00:38;;;;;;;;;;;;;;;;;;5013086;28;20402;-64
2024/04/01 04:03:07;;;;;;;;;;;;;;;;;;5016041;28;19971;-64
2024/04/01 04:05:33;;;;;;;;;;;;;;;;;;5012160;28;19984;-63
2024/04/01 04:07:58;;;;;;;;;;;;;;;;;;5015196;28;19972;-64
2024/04/01 04:10:24;;;;;;;;;;;;;;;;;;5013863;28;19916;-65
2024/04/01 04:12:50;;;;;;;;;;;;;;;;;;5013219;28;19968;-65
2024/04/01 04:15:16;;;;;;;;;;;;;;;;;;5016229;28;19909;-64
2024/04/01 04:17:42;;;;;;;;;;;;;;;;;;5013123;28;19914;-65
2024/04/01 04:20:08;;;;;;;;;;;;;;;;;;5013249;28;20004;-65
2024/04/01 04:22:34;;;;;;;;;;;;;;;;;;5012489;28;19922;-65
2024/04/01 04:25:00;;;;;;;;;;;;;;;;;;5012591;28;19940;-65
2024/04/01 04:27:25;;;;;;;;;;;;;;;;;;5011591;28;20338;-65
2024/04/01 04:29:51;;;;;;;;;;;;;;;;;;5012976;28;19955;-65
2024/04/01 04:32:19;;;;;;;;;;;;;;;;;;5012407;28;19996;-64
2024/04/01 04:34:45;;;;;;;;;;;;;;;;;;5012309;28;19948;-65
2024/04/01 04:37:10;;;;;;;;;;;;;;;;;;5012876;28;19913;-64
2024/04/01 04:39:36;;;;;;;;;;;;;;;;;;5013162;28;19914;-64
2024/04/01 04:42:02;;;;;;;;;;;;;;;;;;5012232;28;20426;-65
2024/04/01 04:44:28;;;;;;;;;;;;;;;;;;5015258;28;19910;-65
2024/04/01 04:46:54;;;;;;;;;;;;;;;;;;5012169;28;19918;-65
2024/04/01 04:49:20;;;;;;;;;;;;;;;;;;5013740;28;19916;-65
2024/04/01 04:51:46;;;;;;;;;;;;;;;;;;5012428;28;20302;-65
2024/04/01 04:54:12;;;;;;;;;;;;;;;;;;5015287;28;19920;-65
2024/04/01 04:56:38;;;;;;;;;;;;;;;;;;5017033;28;20008;-65
2024/04/01 04:59:04;;;;;;;;;;;;;;;;;;5014959;28;20017;-64
2024/04/01 05:01:29;;;;;;;;;;;;;;;;;;5013116;28;19940;-64
2024/04/01 05:03:55;;;;;;;;;;;;;;;;;;5017542;28;19909;-64
2024/04/01 05:06:22;;;;;;;;;;;;;;;;;;5011981;28;19963;-65
2024/04/01 05:08:47;;;;;;;;;;;;;;;;;;5011584;28;20323;-64
2024/04/01 05:11:13;;;;;;;;;;;;;;;;;;5011689;28;19924;-63
2024/04/01 05:13:39;;;;;;;;;;;;;;;;;;5011898;28;20277;-64
2024/04/01 05:16:05;;;;;;;;;;;;;;;;;;5011958;28;19922;-65
2024/04/01 05:18:31;;;;;;;;;;;;;;;;;;5011849;28;20364;-64
2024/04/01 05:20:57;;;;;;;;;;;;;;;;;;5010713;28;20036;-64
2024/04/01 05:23:23;;;;;;;;;;;;;;;;;;5012172;28;19925;-64
2024/04/01 05:25:49;;;;;;;;;;;;;;;;;;5011520;28;19913;-64
2024/04/01 05:28:15;;;;;;;;;;;;;;;;;;5011366;28;19920;-64
2024/04/01 05:30:40;;;;;;;;;;;;;;;;;;5011428;28;19952;-64
2024/04/01 05:33:06;;;;;;;;;;;;;;;;;;5011540;28;19935;-64
2024/04/01 05:35:37;;;;;;;;;;;;;;;;;;5011522;28;20380;-64
2024/04/01 05:38:03;;;;;;;;;;;;;;;;;;5011918;28;19921;-64
2024/04/01 05:40:29;;;;;;;;;;;;;;;;;;5011179;28;19913;-65
2024/04/01 05:42:55;;;;;;;;;;;;;;;;;;5008875;28;19985;-64
2024/04/01 05:45:21;;;;;;;;;;;;;;;;;;5009843;28;20382;-64
2024/04/01 05:47:51;;;;;;;;;;;;;;;;;;5011620;28;19910;-64
2024/04/01 05:50:20;;;;;;;;;;;;;;;;;;5010419;28;19914;-64
2024/04/01 05:52:46;;;;;;;;;;;;;;;;;;5011206;28;19910;-65
2024/04/01 05:55:12;;;;;;;;;;;;;;;;;;5011086;28;20004;-64
2024/04/01 05:57:38;;;;;;;;;;;;;;;;;;5010947;28;19913;-64
2024/04/01 06:00:04;;;;;;;;;;;;;;;;;;5011164;28;19917;-65
2024/04/01 06:02:30;;;;;;;;;;;;;;;;;;5011735;28;20384;-65
2024/04/01 06:04:56;;;;;;;;;;;;;;;;;;5016196;28;19921;-64
2024/04/01 06:07:22;;;;;;;;;;;;;;;;;;5014677;28;20403;-65
2024/04/01 06:09:47;;;;;;;;;;;;;;;;;;5013311;28;19910;-65
2024/04/01 06:12:13;;;;;;;;;;;;;;;;;;5015394;28;19914;-65
2024/04/01 06:14:39;;;;;;;;;;;;;;;;;;5011092;28;19943;-63
2024/04/01 06:17:05;;;;;;;;;;;;;;;;;;5015347;28;20335;-64
2024/04/01 06:19:31;;;;;;;;;;;;;;;;;;5005253;28;19913;-63
2024/04/01 06:21:57;;;;;;;;;;;;;;;;;;5010736;28;19914;-64
2024/04/01 06:24:23;;;;;;;;;;;;;;;;;;5011264;28;19973;-65
2024/04/01 06:26:48;;;;;;;;;;;;;;;;;;5015261;28;19940;-63
2024/04/01 06:29:15;;;;;;;;;;;;;;;;;;5014010;28;19916;-64
2024/04/01 06:31:41;;;;;;;;;;;;;;;;;;5013355;28;20359;-64
2024/04/01 06:34:06;;;;;;;;;;;;;;;;;;5034709;28;19956;-63
2024/04/01 06:36:34;;;;;;;;;;;;;;;;;;5018702;28;19963;-63
2024/04/01 06:39:02;;;;;;;;;;;;;;;;;;5019412;28;19966;-65
2024/04/01 06:41:28;;;;;;;;;;;;;;;;;;5018170;28;19917;-65
2024/04/01 06:43:54;;;;;;;;;;;;;;;;;;5031984;28;20280;-65
2024/04/01 06:46:20;;;;;;;;;;;;;;;;;;5014534;28;19913;-65
2024/04/01 06:48:46;;;;;;;;;;;;;;;;;;5018222;28;19913;-65
2024/04/01 06:51:11;;;;;;;;;;;;;;;;;;5018647;28;19916;-65
2024/04/01 06:53:37;;;;;;;;;;;;;;;;;;5017881;28;20372;-65
2024/04/01 06:56:03;;;;;;;;;;;;;;;;;;5019567;28;19932;-65
2024/04/01 06:58:29;;;;;;;;;;;;;;;;;;5018168;28;19972;-64
2024/04/01 07:00:55;;;;;;;;;;;;;;;;;;5018094;28;19910;-65
2024/04/01 07:03:21;;;;;;;;;;;;;;;;;;5019037;28;19914;-64
2024/04/01 07:05:47;;;;;;;;;;;;;;;;;;5017723;28;19920;-65
2024/04/01 07:08:12;;;;;;;;;;;;;;;;;;5019180;28;20446;-65
2024/04/01 07:10:38;;;;;;;;;;;;;;;;;;5017503;28;19910;-65
2024/04/01 07:13:04;;;;;;;;;;;;;;;;;;5018952;28;19909;-65
2024/04/01 07:15:30;;;;;;;;;;;;;;;;;;5017572;28;19909;-64
2024/04/01 07:17:56;;;;;;;;;;;;;;;;;;5012590;28;20376;-65
2024/04/01 07:20:22;;;;;;;;;;;;;;;;;;5013624;28;19913;-66
2024/04/01 07:22:48;;;;;;;;;;;;;;;;;;5013692;28;20016;-66
2024/04/01 07:25:13;;;;;;;;;;;;;;;;;;5015325;28;20079;-66
2024/04/01 07:27:39;;;;;;;;;;;;;;;;;;5014074;28;19910;-65
2024/04/01 07:30:05;;;;;;;;;;;;;;;;;;5014090;28;20423;-65
2024/04/01 07:32:31;;;;;;;;;;;;;;;;;;5015134;28;19910;-66
2024/04/01 07:34:57;;;;;;;;;;;;;;;;;;5013609;28;19913;-66
2024/04/01 07:37:23;;;;;;;;;;;;;;;;;;5015431;28;19909;-65
2024/04/01 07:39:49;;;;;;;;;;;;;;;;;;5015081;28;20403;-66
2024/04/01 07:42:14;;;;;;;;;;;;;;;;;;5013680;28;19980;-66
2024/04/01 07:44:40;;;;;;;;;;;;;;;;;;5012653;28;19916;-66
2024/04/01 07:47:06;;;;;;;;;;;;;;;;;;5014599;28;19932;-66
2024/04/01 07:49:32;;;;;;;;;;;;;;;;;;5013728;28;19917;-66
2024/04/01 07:51:58;;;;;;;;;;;;;;;;;;5012893;28;19922;-65
2024/04/01 07:54:26;;;;;;;;;;;;;;;;;;5013432;28;19914;-66
2024/04/01 07:56:52;;;;;;;;;;;;;;;;;;5013479;28;19910;-66
2024/04/01 07:59:18;;;;;;;;;;;;;;;;;;5014517;28;19921;-66
2024/04/01 08:01:45;;;;;;;;;;;;;;;;;;5013241;28;19913;-66
2024/04/01 08:04:11;;;;;;;;;;;;;;;;;;5013427;28;20040;-66
2024/04/01 08:06:37;;;;;;;;;;;;;;;;;;5015152;28;19961;-66
2024/04/01 08:09:03;;;;;;;;;;;;;;;;;;5015785;28;20470;-67
2024/04/01 08:11:28;;;;;;;;;;;;;;;;;;5015371;28;19925;-66
2024/04/01 08:13:54;;;;;;;;;;;;;;;;;;5015263;28;19953;-66
2024/04/01 08:16:20;;;;;;;;;;;;;;;;;;5015246;28;19913;-66
2024/04/01 08:18:46;;;;;;;;;;;;;;;;;;5013450;28;19920;-66
2024/04/01 08:21:12;;;;;;;;;;;;;;;;;;5012691;28;20410;-66
2024/04/01 08:23:38;;;;;;;;;;;;;;;;;;5014942;28;19917;-67
2024/04/01 08:26:04;;;;;;;;;;;;;;;;;;5013525;28;19953;-67
2024/04/01 08:28:30;;;;;;;;;;;;;;;;;;5014726;28;19916;-67
2024/04/01 08:30:55;;;;;;;;;;;;;;;;;;5014475;28;19910;-67
2024/04/01 08:33:21;;;;;;;;;;;;;;;;;;5014204;28;19917;-67
2024/04/01 08:35:47;;;;;;;;;;;;;;;;;;5014147;28;20008;-67
2024/04/01 08:38:13;;;;;;;;;;;;;;;;;;5014029;28;19917;-66
2024/04/01 08:40:39;;;;;;;;;;;;;;;;;;5014048;28;19914;-64
2024/04/01 08:43:05;;;;;;;;;;;;;;;;;;5014429;28;19964;-65
2024/04/01 08:45:31;;;;;;;;;;;;;;;;;;5013356;28;19913;-65
2024/04/01 08:47:57;;;;;;;;;;;;;;;;;;5014273;28;19972;-65
2024/04/01 08:50:23;;;;;;;;;;;;;;;;;;5013778;28;19917;-64
2024/04/01 08:52:49;;;;;;;;;;;;;;;;;;5014013;28;19913;-65
2024/04/01 08:55:15;;;;;;;;;;;;;;;;;;5013471;28;20075;-64
2024/04/01 08:57:41;;;;;;;;;;;;;;;;;;5012874;28;19921;-65
2024/04/01 09:00:07;;;;;;;;;;;;;;;;;;5014766;28;20020;-65
2024/04/01 09:02:33;;;;;;;;;;;;;;;;;;5012955;28;19914;-65
2024/04/01 09:04:59;;;;;;;;;;;;;;;;;;5013487;28;19924;-65
2024/04/01 09:07:25;;;;;;;;;;;;;;;;;;5014172;28;20272;-65
2024/04/01 09:09:51;;;;;;;;;;;;;;;;;;5013364;28;19925;-65
2024/04/01 09:12:16;;;;;;;;;;;;;;;;;;5013389;28;19964;-64
2024/04/01 09:14:42;;;;;;;;;;;;;;;;;;5012569;28;19913;-65
2024/04/01 09:17:08;;;;;;;;;;;;;;;;;;5012643;28;19909;-67
2024/04/01 09:19:34;;;;;;;;;;;;;;;;;;5012239;28;20000;-67
2024/04/01 09:22:01;;;;;;;;;;;;;;;;;;5011832;28;19909;-67
2024/04/01 09:24:27;;;;;;;;;;;;;;;;;;5012282;28;20025;-66
2024/04/01 09:26:53;;;;;;;;;;;;;;;;;;5012270;28;19909;-67
2024/04/01 09:29:18;;;;;;;;;;;;;;;;;;5011612;28;20004;-66
2024/04/01 09:31:45;;;;;;;;;;;;;;;;;;5011782;28;19910;-67
2024/04/01 09:34:11;;;;;;;;;;;;;;;;;;5012272;28;19949;-66
2024/04/01 09:36:37;;;;;;;;;;;;;;;;;;5012195;28;19965;-67
2024/04/01 09:39:03;;;;;;;;;;;;;;;;;;5012460;28;20539;-67
2024/04/01 09:41:29;;;;;;;;;;;;;;;;;;5012112;28;19917;-66
2024/04/01 09:43:55;;;;;;;;;;;;;;;;;;5012249;28;19910;-67
2024/04/01 09:46:21;;;;;;;;;;;;;;;;;;5011982;28;19922;-67
2024/04/01 09:48:47;;;;;;;;;;;;;;;;;;5011443;28;19909;-67
2024/04/01 09:51:13;;;;;;;;;;;;;;;;;;5011650;28;19917;-65
2024/04/01 09:53:39;;;;;;;;;;;;;;;;;;5011883;28;19916;-66
2024/04/01 09:56:04;;;;;;;;;;;;;;;;;;5011884;28;19964;-66
2024/04/01 09:58:32;;;;;;;;;;;;;;;;;;5014435;28;20364;-66
2024/04/01 10:00:58;;;;;;;;;;;;;;;;;;5026676;28;19952;-66
2024/04/01 10:03:24;;;;;;;;;;;;;;;;;;5014632;28;19961;-66
2024/04/01 10:05:50;;;;;;;;;;;;;;;;;;5017323;28;19914;-66
2024/04/01 10:08:16;;;;;;;;;;;;;;;;;;5017407;28;19909;-66
2024/04/01 10:10:42;;;;;;;;;;;;;;;;;;5025808;28;19916;-66
2024/04/01 10:13:08;;;;;;;;;;;;;;;;;;5018927;28;19909;-66
2024/04/01 10:15:34;;;;;;;;;;;;;;;;;;5037452;28;19954;-66
2024/04/01 10:17:59;;;;;;;;;;;;;;;;;;5022127;28;19996;-66
2024/04/01 10:20:25;;;;;;;;;;;;;;;;;;5026124;28;19913;-65
2024/04/01 10:22:51;;;;;;;;;;;;;;;;;;5018691;28;19921;-66
2024/04/01 10:25:17;;;;;;;;;;;;;;;;;;5033454;28;19939;-66
2024/04/01 10:27:43;;;;;;;;;;;;;;;;;;5022220;28;20060;-65
2024/04/01 10:30:09;;;;;;;;;;;;;;;;;;5028491;28;20012;-64
2024/04/01 10:32:35;;;;;;;;;;;;;;;;;;5028708;28;19909;-66
2024/04/01 10:35:01;;;;;;;;;;;;;;;;;;5028978;28;19921;-66
2024/04/01 10:37:27;;;;;;;;;;;;;;;;;;5027724;28;19918;-66
2024/04/01 10:39:53;;;;;;;;;;;;;;;;;;5028680;28;19913;-66
2024/04/01 10:42:18;;;;;;;;;;;;;;;;;;5027193;28;19928;-66
2024/04/01 10:44:44;;;;;;;;;;;;;;;;;;5022257;28;19915;-66
2024/04/01 10:47:10;;;;;;;;;;;;;;;;;;5028694;28;20334;-66
2024/04/01 10:49:36;;;;;;;;;;;;;;;;;;5028638;28;19943;-66
2024/04/01 10:52:02;;;;;;;;;;;;;;;;;;5021646;28;19968;-67
2024/04/01 10:54:28;;;;;;;;;;;;;;;;;;5032219;28;19956;-66
2024/04/01 10:56:54;;;;;;;;;;;;;;;;;;5023263;28;19917;-66
2024/04/01 10:59:20;;;;;;;;;;;;;;;;;;5027231;28;19913;-64
2024/04/01 11:01:47;;;;;;;;;;;;;;;;;;5030827;28;19914;-65
2024/04/01 11:04:13;;;;;;;;;;;;;;;;;;5017523;28;20009;-66
2024/04/01 11:06:39;;;;;;;;;;;;;;;;;;5025086;28;20399;-67
2024/04/01 11:09:05;;;;;;;;;;;;;;;;;;5025285;28;19913;-67
2024/04/01 11:11:31;;;;;;;;;;;;;;;;;;5027108;28;19910;-65
2024/04/01 11:13:57;;;;;;;;;;;;;;;;;;5029619;28;19909;-65
2024/04/01 11:16:23;;;;;;;;;;;;;;;;;;5033233;28;19916;-66
2024/04/01 11:18:48;;;;;;;;;;;;;;;;;;5025937;28;19917;-66
2024/04/01 11:21:14;;;;;;;;;;;;;;;;;;5023576;28;20288;-64
2024/04/01 11:23:40;;;;;;;;;;;;;;;;;;5025017;28;19910;-67
2024/04/01 11:26:06;;;;;;;;;;;;;;;;;;5030952;28;20351;-67
2024/04/01 11:28:32;;;;;;;;;;;;;;;;;;5029935;28;19909;-67
2024/04/01 11:30:58;;;;;;;;;;;;;;;;;;5024454;28;19913;-66
2024/04/01 11:33:24;;;;;;;;;;;;;;;;;;5022459;28;19913;-66
2024/04/01 11:35:50;;;;;;;;;;;;;;;;;;5026193;28;19963;-66
2024/04/01 11:38:17;;;;;;;;;;;;;;;;;;5022979;28;19914;-66
2024/04/01 11:40:42;;;;;;;;;;;;;;;;;;5020813;28;19913;-66
2024/04/01 11:43:08;;;;;;;;;;;;;;;;;;5020802;28;20035;-67
2024/04/01 11:45:35;;;;;;;;;;;;;;;;;;5026140;28;19948;-67
2024/04/01 11:48:00;;;;;;;;;;;;;;;;;;5031007;28;20436;-67
2024/04/01 11:50:26;;;;;;;;;;;;;;;;;;5017258;28;19945;-67
2024/04/01 11:52:52;;;;;;;;;;;;;;;;;;5014833;28;20287;-67
2024/04/01 11:55:18;;;;;;;;;;;;;;;;;;5012958;28;20008;-67
2024/04/01 11:57:44;;;;;;;;;;;;;;;;;;5012663;28;19917;-67
2024/04/01 12:00:10;;;;;;;;;;;;;;;;;;5012831;28;19995;-66
2024/04/01 12:02:36;;;;;;;;;;;;;;;;;;5012734;28;19992;-67
2024/04/01 12:05:02;;;;;;;;;;;;;;;;;;5013273;28;19941;-67
2024/04/01 12:07:28;;;;;;;;;;;;;;;;;;5012819;28;20184;-67
2024/04/01 12:09:54;;;;;;;;;;;;;;;;;;5012916;28;19921;-67
2024/04/01 12:12:20;;;;;;;;;;;;;;;;;;5012442;28;20016;-67
2024/04/01 12:14:46;;;;;;;;;;;;;;;;;;5012514;28;19913;-67
2024/04/01 12:17:12;;;;;;;;;;;;;;;;;;5012645;28;20288;-67
2024/04/01 12:19:38;;;;;;;;;;;;;;;;;;5012399;28;19921;-67
2024/04/01 12:22:03;;;;;;;;;;;;;;;;;;5012312;28;19920;-66
2024/04/01 12:24:30;;;;;;;;;;;;;;;;;;5012979;28;19996;-66
2024/04/01 12:26:55;;;;;;;;;;;;;;;;;;5012371;28;19918;-66
2024/04/01 12:29:21;;;;;;;;;;;;;;;;;;5011823;28;19920;-67
2024/04/01 12:31:47;;;;;;;;;;;;;;;;;;5011970;28;19913;-67
2024/04/01 12:34:13;;;;;;;;;;;;;;;;;;5012190;28;19914;-67
2024/04/01 12:36:40;;;;;;;;;;;;;;;;;;5011914;28;19925;-67
2024/04/01 12:39:06;;;;;;;;;;;;;;;;;;5012331;28;19914;-66
2024/04/01 12:41:32;;;;;;;;;;;;;;;;;;5011695;28;19992;-67
2024/04/01 12:43:58;;;;;;;;;;;;;;;;;;5012213;28;20001;-67
2024/04/01 12:46:25;;;;;;;;;;;;;;;;;;5011950;28;19922;-67
2024/04/01 12:48:51;;;;;;;;;;;;;;;;;;5012126;28;19938;-66
2024/04/01 12:51:16;;;;;;;;;;;;;;;;;;5011798;28;19996;-66
2024/04/01 12:53:42;;;;;;;;;;;;;;;;;;5012081;28;19910;-66
2024/04/01 12:56:08;;;;;;;;;;;;;;;;;;5011980;28;20008;-66
2024/04/01 12:58:34;;;;;;;;;;;;;;;;;;5011705;28;19914;-66
2024/04/01 13:01:00;;;;;;;;;;;;;;;;;;5011729;28;19913;-67
2024/04/01 13:03:26;;;;;;;;;;;;;;;;;;5011485;28;19918;-66
2024/04/01 13:05:52;;;;;;;;;;;;;;;;;;5011714;28;20004;-66
2024/04/01 13:08:17;;;;;;;;;;;;;;;;;;5011714;28;19910;-66
2024/04/01 13:10:43;;;;;;;;;;;;;;;;;;5011212;28;20156;-67
2024/04/01 13:13:09;;;;;;;;;;;;;;;;;;5011633;28;19917;-67
2024/04/01 13:15:35;;;;;;;;;;;;;;;;;;5011615;28;20387;-67
2024/04/01 13:18:01;;;;;;;;;;;;;;;;;;5011623;28;19909;-66
2024/04/01 13:20:27;;;;;;;;;;;;;;;;;;5011340;28;19963;-67
2024/04/01 13:22:53;;;;;;;;;;;;;;;;;;5011384;28;20322;-66
2024/04/01 13:25:18;;;;;;;;;;;;;;;;;;5011433;28;19983;-66
2024/04/01 13:27:45;;;;;;;;;;;;;;;;;;5011457;28;19937;-67
2024/04/01 13:30:10;;;;;;;;;;;;;;;;;;5011517;28;19917;-66
2024/04/01 13:32:36;;;;;;;;;;;;;;;;;;5011056;28;19909;-67
2024/04/01 13:35:04;;;;;;;;;;;;;;;;;;5010729;28;19917;-64
2024/04/01 13:37:31;;;;;;;;;;;;;;;;;;5010943;28;19921;-67
2024/04/01 13:39:56;;;;;;;;;;;;;;;;;;5011177;28;19913;-65
2024/04/01 13:42:23;;;;;;;;;;;;;;;;;;5010074;28;19963;-67
2024/04/01 13:44:49;;;;;;;;;;;;;;;;;;5015839;28;19909;-66
2024/04/01 13:47:14;;;;;;;;;;;;;;;;;;5018352;28;20327;-67
2024/04/01 13:49:40;;;;;;;;;;;;;;;;;;5018040;28;20005;-67
2024/04/01 13:52:06;;;;;;;;;;;;;;;;;;5014750;28;19968;-66
2024/04/01 13:54:32;;;;;;;;;;;;;;;;;;5009530;28;20016;-66
2024/04/01 13:56:58;;;;;;;;;;;;;;;;;;5020199;28;19909;-67
2024/04/01 13:59:24;;;;;;;;;;;;;;;;;;5012027;28;19918;-67
2024/04/01 14:01:49;;;;;;;;;;;;;;;;;;5016157;28;20287;-66
2024/04/01 14:04:16;;;;;;;;;;;;;;;;;;5012140;28;19932;-67
2024/04/01 14:06:41;;;;;;;;;;;;;;;;;;5016208;28;19981;-66
2024/04/01 14:09:07;;;;;;;;;;;;;;;;;;5010770;28;19972;-66
2024/04/01 14:11:33;;;;;;;;;;;;;;;;;;5016954;28;19910;-66
2024/04/01 14:13:59;;;;;;;;;;;;;;;;;;5015490;28;19996;-66
2024/04/01 14:16:25;;;;;;;;;;;;;;;;;;5019039;28;20296;-67
2024/04/01 14:18:51;;;;;;;;;;;;;;;;;;5019148;28;20032;-67
2024/04/01 14:21:16;;;;;;;;;;;;;;;;;;5019228;28;19925;-66
2024/04/01 14:23:42;;;;;;;;;;;;;;;;;;5023185;28;19920;-66
2024/04/01 14:26:08;;;;;;;;;;;;;;;;;;5020491;28;20292;-66
2024/04/01 14:28:34;;;;;;;;;;;;;;;;;;5021894;28;19917;-66
2024/04/01 14:31:00;;;;;;;;;;;;;;;;;;5021269;28;19910;-66
2024/04/01 14:33:26;;;;;;;;;;;;;;;;;;5021198;28;19983;-66
2024/04/01 14:35:52;;;;;;;;;;;;;;;;;;5021943;28;20007;-66
2024/04/01 14:38:18;;;;;;;;;;;;;;;;;;5020845;28;19988;-66
2024/04/01 14:40:43;;;;;;;;;;;;;;;;;;5017471;28;19967;-66
2024/04/01 14:43:09;;;;;;;;;;;;;;;;;;5019920;28;19948;-67
2024/04/01 14:45:35;;;;;;;;;;;;;;;;;;5016092;28;20065;-66
2024/04/01 14:48:01;;;;;;;;;;;;;;;;;;5015034;28;19982;-66
2024/04/01 14:50:27;;;;;;;;;;;;;;;;;;5010418;28;19918;-66
2024/04/01 14:52:53;;;;;;;;;;;;;;;;;;5016513;28;20387;-66
2024/04/01 14:55:18;;;;;;;;;;;;;;;;;;5019279;28;19920;-67
2024/04/01 14:57:44;;;;;;;;;;;;;;;;;;5018998;28;19924;-66
2024/04/01 15:00:10;;;;;;;;;;;;;;;;;;5018984;28;20375;-66
2024/04/01 15:02:37;;;;;;;;;;;;;;;;;;5013950;28;19910;-66
2024/04/01 15:05:03;;;;;;;;;;;;;;;;;;5010500;28;19995;-65
2024/04/01 15:07:29;;;;;;;;;;;;;;;;;;5014040;28;19984;-66
2024/04/01 15:09:55;;;;;;;;;;;;;;;;;;5018849;28;19909;-65
2024/04/01 15:12:21;;;;;;;;;;;;;;;;;;5013608;28;20019;-66
2024/04/01 15:14:47;;;;;;;;;;;;;;;;;;5013704;28;20430;-66
2024/04/01 15:17:13;;;;;;;;;;;;;;;;;;5019098;28;19996;-66
2024/04/01 15:19:39;;;;;;;;;;;;;;;;;;5018510;28;19940;-66
2024/04/01 15:22:05;;;;;;;;;;;;;;;;;;5018253;28;20311;-66
2024/04/01 15:24:31;;;;;;;;;;;;;;;;;;5018624;28;19922;-66
2024/04/01 15:26:57;;;;;;;;;;;;;;;;;;5018455;28;19909;-66
2024/04/01 15:29:23;;;;;;;;;;;;;;;;;;5013403;28;20291;-66
2024/04/01 15:31:48;;;;;;;;;;;;;;;;;;5017757;28;19918;-65
2024/04/01 15:34:14;;;;;;;;;;;;;;;;;;5018185;28;20280;-66
2024/04/01 15:36:42;;;;;;;;;;;;;;;;;;5017973;28;19917;-66
2024/04/01 15:39:08;;;;;;;;;;;;;;;;;;5013005;28;20004;-66
2024/04/01 15:41:34;;;;;;;;;;;;;;;;;;5017879;28;20366;-66
2024/04/01 15:44:00;;;;;;;;;;;;;;;;;;5013438;28;19909;-66
2024/04/01 15:46:26;;;;;;;;;;;;;;;;;;5015002;28;20000;-66
2024/04/01 15:48:51;;;;;;;;;;;;;;;;;;5018891;28;19913;-66
2024/04/01 15:51:17;;;;;;;;;;;;;;;;;;5020716;28;20325;-66
2024/04/01 15:53:43;;;;;;;;;;;;;;;;;;5022989;28;19909;-67
2024/04/01 15:56:10;;;;;;;;;;;;;;;;;;5021966;28;19909;-66
2024/04/01 15:58:36;;;;;;;;;;;;;;;;;;5021640;28;19952;-66
2024/04/01 16:01:02;;;;;;;;;;;;;;;;;;5022030;28;20399;-67
2024/04/01 16:03:30;;;;;;;;;;;;;;;;;;5017609;28;19921;-66
2024/04/01 16:05:56;;;;;;;;;;;;;;;;;;5020327;28;20356;-66
2024/04/01 16:08:22;;;;;;;;;;;;;;;;;;5023089;28;19948;-66
2024/04/01 16:10:48;;;;;;;;;;;;;;;;;;5019636;28;19915;-66
2024/04/01 16:13:14;;;;;;;;;;;;;;;;;;5019509;28;19996;-66
2024/04/01 16:15:40;;;;;;;;;;;;;;;;;;5017422;28;19924;-66
2024/04/01 16:18:05;;;;;;;;;;;;;;;;;;5024514;28;19909;-66
2024/04/01 16:20:31;;;;;;;;;;;;;;;;;;5017439;28;20008;-66
2024/04/01 16:22:59;;;;;;;;;;;;;;;;;;5023355;28;19916;-66
2024/04/01 16:25:25;;;;;;;;;;;;;;;;;;5018935;28;20046;-66
2024/04/01 16:27:51;;;;;;;;;;;;;;;;;;5018472;28;20411;-66
2024/04/01 16:30:17;;;;;;;;;;;;;;;;;;5014738;28;19917;-66
2024/04/01 16:32:42;;;;;;;;;;;;;;;;;;5017363;28;19988;-66
2024/04/01 16:35:08;;;;;;;;;;;;;;;;;;5015398;28;20399;-66
2024/04/01 16:37:34;;;;;;;;;;;;;;;;;;5012401;28;19957;-66